Bloomville, Ohio
Current Conditions -  °F | °C
As of 2:53 AM on Sunday 26 Oct 2014 (Local Time) from KMNN Reporting Station
Clear Clear  
Wind Chill: 45°   Ceiling: Unl
Heat Index: 49°   Visibility: 10mi
Dew Point: 33°   Wind: 8mph
Humidity: 54%   Direction: 290°WNW
Pressure: 29.89"   Gusts: NA
Location:  41.05°N, 83.01°W
Report Text: KMNN 260653Z AUTO 29007KT 10SM CLR 09/01 A2989 RMK AO2 SLP119 T00940006 TSNO
Loading
Personal Weather Stations






























Interactive Weather Map
Tropical Storm Tracking
New forecast layout! Learn more

10-Day Weather Forecast

Advertisements
Track Severe Weather on mobile